Amarillo, TX

9:42 PM CDT on August 25, 2016 (GMT -0500)
Travis middle school | | Change Station
Active Advisory: Severe Thunderstorm Watch Active Notice: Local Storm Report

Elev 3658 ft 35.24 °N, 101.81 °W | Updated 1 minute ago

Rain
Rain Mist
61.3 °F
Feels Like 61.3 °F
N
2.0
Wind Variable Wind from ESE

Today
High -- | Low -- °F
--% Chance of Precip.
Yesterday
High -- | Low -- °F
Precip. -- in
Pressure 30.07 in
Visibility 6.0 miles
Clouds Scattered Clouds 8000 ft
Overcast 10000 ft
Dew Point 57 °F
Humidity 86%
Rainfall 0.27 in
Snow Depth Not available.
7:14 AM 8:22 PM
Last Quarter, 39% visible
METAR KAMA 260153Z 07005KT 6SM VCTS RA BR SCT080 OVC100 17/15 A3017 RMK AO2 LTG DSNT SW-NW SLP182 P0004 T01720150
Pressure 30.07 in
Visibility 6.0 miles
Clouds Scattered Clouds 8000 ft
Overcast 10000 ft
Dew Point 57 °F
Humidity 86%
Rainfall 0.27 in
Snow Depth Not available.
7:14 AM 8:22 PM
Last Quarter, 39% visible
METAR KAMA 260153Z 07005KT 6SM VCTS RA BR SCT080 OVC100 17/15 A3017 RMK AO2 LTG DSNT SW-NW SLP182 P0004 T01720150
A tropical disturbance pushing toward the Bahamas, is expected to develop into a tropical depression or storm, and will likely target Florida and the Gulf Coast this weekend into next week.

Right now, the disturbance remains a broad area of low pressure pushing through the Dominican Republic and Haiti, headed toward the southeast Bahamas. Rainfall totals over 3 inches (with locally higher amounts) are expected in HispaƱiola, particularly over elevated terrain.

10-Day Weather Forecast

Almanac

Astronomy

Aug. 25, 2016 Rise Set
Actual Time
Civil Twilight
Nautical Twilight
Astronomical Twilight
Moon
Length of Visible Light
Length of Day
Tomorrow will be .
, % of the Moon is Illuminated

Today's Extremes

State Highs State Lows

Community

WunderPhotos

Upload Photos

1,935,035 photos uploaded!

WunderBlog® & News

Nearby

Air Quality

  Air Quality AQ Index Pollutant
Not available.

Snow Depth

Station Depth Elevation

Earthquake Activity

City Distance Mag. Time & Date
Minimum magnitude displayed is 2.5.

Coastal Water Temperatures

Place Temperature

Stations

Nearby Weather Stations

Station Location Temp. Windchill Dew Point Humidity Wind Precip. Elev Updated Type
                   

Watches & Warnings

Severe Thunderstorm Watch
Issued: 9:24 PM CDT Aug. 25, 2016 – National Weather Service

Severe Thunderstorm Watch 457 remains in effect until 1000 PM CDT

TX
. Texas counties included are

Armstrong Carson Collingsworth
Dallam Deaf Smith Donley
gray Hansford Hartley
Hemphill Hutchinson Lipscomb
Moore Ochiltree Oldham
Potter Randall Roberts
Sherman Wheeler